Terminal Aerodrome Forecast
Issued by NWS Quad Cities IA IL

Home | Current Version | Previous Version | Text Only | Print | Product List | Glossary On
Versions: 1 2 3 4 5 6 7 8 9 10 11 12 13 14 15 16 17 18 19 20 21 22 23 24
000
FTUS43 KDVN 021700
TAFMLI
TAF
KMLI 021725Z 0218/0318 VRB04KT P6SM SCT110 BKN250
     FM022200 11005KT P6SM BKN110 OVC250
     FM030200 13007KT P6SM OVC080
     FM030900 14012KT 4SM -SN BR OVC035
     FM031200 15014G19KT 3SM -SNPL BR OVC018
     FM031500 18015G21KT 3SM -RA BR OVC010=

USA.gov is the U.S. government's official web portal to all federal, state and local government web resources and services.